createdAt,value
2023-09-30T00:00:10.326Z,96393.97
2023-09-30T00:02:37.290Z,96388.00
2023-09-30T00:05:05.339Z,96389.81
2023-09-30T00:07:32.648Z,96397.59
2023-09-30T00:10:00.126Z,96404.13
2023-09-30T00:12:28.199Z,96409.34
2023-09-30T00:14:55.146Z,96401.56
2023-09-30T00:17:21.842Z,96406.72
2023-09-30T00:19:48.757Z,96402.13
2023-09-30T00:22:15.442Z,96402.72
2023-09-30T00:24:42.194Z,96398.00
2023-09-30T00:27:09.147Z,96397.22
2023-09-30T00:29:36.960Z,96415.22
2023-09-30T00:32:04.392Z,96418.06
2023-09-30T00:34:35.047Z,96420.50
2023-09-30T00:37:02.092Z,96423.06
2023-09-30T00:39:31.751Z,96409.22
2023-09-30T00:41:59.954Z,96424.31
2023-09-30T00:44:27.789Z,96433.63
2023-09-30T00:46:56.849Z,96430.47
2023-09-30T00:49:27.348Z,96437.97
2023-09-30T00:51:55.890Z,96436.09
2023-09-30T00:54:22.982Z,96444.56
2023-09-30T00:56:50.763Z,96443.34
2023-09-30T00:59:18.080Z,96449.97
2023-09-30T01:01:45.379Z,96446.47
2023-09-30T01:04:12.501Z,96436.13
2023-09-30T01:06:39.628Z,96432.50
2023-09-30T01:09:06.370Z,96429.97
2023-09-30T01:11:33.264Z,96417.34
2023-09-30T01:13:59.884Z,96414.03
2023-09-30T01:16:26.498Z,96421.13
2023-09-30T01:18:53.280Z,96414.66
2023-09-30T01:21:20.390Z,96417.78
2023-09-30T01:23:47.874Z,96418.94
2023-09-30T01:26:14.931Z,96426.44
2023-09-30T01:28:41.842Z,96429.44
2023-09-30T01:31:08.627Z,96432.00
2023-09-30T01:33:35.664Z,96427.00
2023-09-30T01:36:02.324Z,96428.28
2023-09-30T01:38:29.020Z,96429.75
2023-09-30T01:40:56.953Z,96429.81
2023-09-30T01:43:25.594Z,96440.50
2023-09-30T01:45:52.241Z,96430.09
2023-09-30T01:48:19.052Z,96431.44
2023-09-30T01:50:45.952Z,96415.78
2023-09-30T01:53:12.617Z,96425.88
2023-09-30T01:55:39.239Z,96418.06
2023-09-30T01:58:06.283Z,96413.34
2023-09-30T02:00:32.955Z,96418.56
2023-09-30T02:02:59.872Z,96420.75
2023-09-30T02:05:26.597Z,96425.88
2023-09-30T02:07:53.202Z,96422.38
2023-09-30T02:10:22.677Z,96421.88
2023-09-30T02:12:49.451Z,96422.09
2023-09-30T02:15:16.248Z,96428.66
2023-09-30T02:17:47.390Z,96419.84
2023-09-30T02:20:17.555Z,96424.91
2023-09-30T02:22:45.611Z,96420.91
2023-09-30T02:25:14.015Z,96426.69
2023-09-30T02:27:42.825Z,96428.03
2023-09-30T02:30:12.984Z,96422.28
2023-09-30T02:32:41.072Z,96418.56
2023-09-30T02:35:08.037Z,96425.59
2023-09-30T02:37:36.815Z,96414.56
2023-09-30T02:40:10.963Z,96414.03
2023-09-30T02:42:39.029Z,96425.72
2023-09-30T02:45:06.762Z,96420.63
2023-09-30T02:47:33.694Z,96424.91
2023-09-30T02:50:00.382Z,96412.28
2023-09-30T02:52:27.065Z,96413.09
2023-09-30T02:54:54.124Z,96422.44
2023-09-30T02:57:20.852Z,96421.44
2023-09-30T02:59:47.701Z,96419.47
2023-09-30T03:02:14.531Z,96421.59
2023-09-30T03:04:41.178Z,96422.16
2023-09-30T03:07:08.694Z,96424.06
2023-09-30T03:09:35.667Z,96424.63
2023-09-30T03:12:02.423Z,96425.00
2023-09-30T03:14:32.255Z,96416.44
2023-09-30T03:16:59.479Z,96414.31
2023-09-30T03:19:26.114Z,96408.13
2023-09-30T03:21:52.977Z,96419.44
2023-09-30T03:24:19.727Z,96418.44
2023-09-30T03:26:46.780Z,96424.66
2023-09-30T03:29:13.957Z,96427.91
2023-09-30T03:31:41.119Z,96429.28
2023-09-30T03:34:07.901Z,96426.34
2023-09-30T03:36:34.813Z,96428.81
2023-09-30T03:39:01.512Z,96433.69
2023-09-30T03:41:29.715Z,96424.56
2023-09-30T03:43:56.601Z,96422.16
2023-09-30T03:46:23.376Z,96431.78
2023-09-30T03:48:50.157Z,96420.25
2023-09-30T03:51:16.866Z,96424.84
2023-09-30T03:53:44.096Z,96430.22
2023-09-30T03:56:13.042Z,96427.00
2023-09-30T03:58:40.806Z,96431.41
2023-09-30T04:01:07.689Z,96437.78
2023-09-30T04:03:34.987Z,96436.88
2023-09-30T04:06:03.725Z,96432.91
2023-09-30T04:08:30.360Z,96435.31
2023-09-30T04:10:56.937Z,96437.06
2023-09-30T04:13:23.743Z,96437.22
2023-09-30T04:15:50.823Z,96436.38
2023-09-30T04:18:17.613Z,96434.81
2023-09-30T04:20:46.315Z,96438.28
2023-09-30T04:23:14.102Z,96444.88
2023-09-30T04:25:41.387Z,96448.63
2023-09-30T04:28:10.991Z,96448.56
2023-09-30T04:30:37.669Z,96451.47
2023-09-30T04:33:06.167Z,96444.06
2023-09-30T04:35:32.900Z,96442.97
2023-09-30T04:38:02.547Z,96440.97
2023-09-30T04:40:29.201Z,96448.34
2023-09-30T04:42:59.713Z,96452.75
2023-09-30T04:45:27.590Z,96436.34
2023-09-30T04:47:54.795Z,96446.50
2023-09-30T04:50:23.783Z,96450.25
2023-09-30T04:52:52.666Z,96455.94
2023-09-30T04:55:20.047Z,96458.78
2023-09-30T04:57:49.232Z,96470.25
2023-09-30T05:00:16.726Z,96460.44
2023-09-30T05:02:44.182Z,96466.94
2023-09-30T05:05:10.993Z,96480.06
2023-09-30T05:07:37.697Z,96476.06
2023-09-30T05:10:11.521Z,96480.94
2023-09-30T05:12:38.652Z,96481.22
2023-09-30T05:15:07.387Z,96486.88
2023-09-30T05:17:34.182Z,96485.03
2023-09-30T05:20:00.809Z,96479.38
2023-09-30T05:22:28.245Z,96473.75
2023-09-30T05:24:54.874Z,96466.31
2023-09-30T05:27:21.594Z,96460.69
2023-09-30T05:29:48.275Z,96473.47
2023-09-30T05:32:15.721Z,96475.38
2023-09-30T05:34:42.459Z,96463.81
2023-09-30T05:37:09.083Z,96461.69
2023-09-30T05:39:36.479Z,96471.13
2023-09-30T05:42:04.214Z,96478.66
2023-09-30T05:44:30.802Z,96475.47
2023-09-30T05:46:57.506Z,96473.34
2023-09-30T05:49:24.953Z,96473.91
2023-09-30T05:51:52.105Z,96480.00
2023-09-30T05:54:18.734Z,96477.03
2023-09-30T05:56:46.201Z,96479.22
2023-09-30T05:59:14.836Z,96484.06
2023-09-30T06:01:42.317Z,96492.91
2023-09-30T06:04:09.331Z,96500.94
2023-09-30T06:06:36.045Z,96495.84
2023-09-30T06:09:02.818Z,96499.38
2023-09-30T06:11:32.096Z,96490.00
2023-09-30T06:14:02.334Z,96494.63
2023-09-30T06:16:29.221Z,96494.69
2023-09-30T06:18:56.123Z,96486.88
2023-09-30T06:21:23.204Z,96497.34
2023-09-30T06:23:55.942Z,96500.28
2023-09-30T06:26:22.543Z,96503.75
2023-09-30T06:28:49.334Z,96508.78
2023-09-30T06:31:16.897Z,96515.22
2023-09-30T06:33:43.609Z,96517.94
2023-09-30T06:36:10.563Z,96516.44
2023-09-30T06:38:38.321Z,96513.56
2023-09-30T06:41:05.269Z,96509.00
2023-09-30T06:43:32.126Z,96519.28
2023-09-30T06:45:58.943Z,96521.38
2023-09-30T06:48:26.198Z,96529.09
2023-09-30T06:50:53.994Z,96533.09
2023-09-30T06:53:20.681Z,96536.09
2023-09-30T06:55:47.541Z,96536.59
2023-09-30T06:58:15.276Z,96535.16
2023-09-30T07:00:43.135Z,96529.34
2023-09-30T07:03:10.773Z,96539.91
2023-09-30T07:05:37.762Z,96536.53
2023-09-30T07:08:04.561Z,96549.78
2023-09-30T07:10:31.160Z,96547.38
2023-09-30T07:12:58.304Z,96551.91
2023-09-30T07:15:24.936Z,96554.78
2023-09-30T07:17:51.602Z,96550.44
2023-09-30T07:20:19.101Z,96554.25
2023-09-30T07:22:55.885Z,96552.16
2023-09-30T07:25:32.964Z,96547.31
2023-09-30T07:28:00.368Z,96555.81
2023-09-30T07:30:26.926Z,96554.91
2023-09-30T07:32:53.665Z,96553.25
2023-09-30T07:35:20.332Z,96556.72
2023-09-30T07:37:47.045Z,96559.34
2023-09-30T07:40:13.851Z,96554.03
2023-09-30T07:42:40.648Z,96571.78
2023-09-30T07:45:07.570Z,96577.66
2023-09-30T07:47:35.406Z,96585.41
2023-09-30T07:50:11.796Z,96577.81
2023-09-30T07:52:41.034Z,96579.25
2023-09-30T07:55:08.273Z,96579.69
2023-09-30T07:57:35.041Z,96586.56
2023-09-30T08:00:02.165Z,96590.50
2023-09-30T08:02:34.506Z,96594.00
2023-09-30T08:05:01.642Z,96589.13
2023-09-30T08:07:28.361Z,96587.94
2023-09-30T08:09:55.304Z,96587.44
2023-09-30T08:12:22.430Z,96594.78
2023-09-30T08:14:50.159Z,96590.97
2023-09-30T08:17:16.982Z,96595.44
2023-09-30T08:19:43.922Z,96597.25
2023-09-30T08:22:10.896Z,96596.69
2023-09-30T08:24:37.517Z,96598.00
2023-09-30T08:27:04.205Z,96588.97
2023-09-30T08:29:33.641Z,96599.84
2023-09-30T08:32:00.268Z,96593.09
2023-09-30T08:34:26.999Z,96591.22
2023-09-30T08:36:53.726Z,96580.22
2023-09-30T08:39:20.426Z,96569.84
2023-09-30T08:41:47.432Z,96579.50
2023-09-30T08:44:14.177Z,96584.81
2023-09-30T08:46:42.248Z,96607.13
2023-09-30T08:49:09.247Z,96614.03
2023-09-30T08:51:37.159Z,96607.34
2023-09-30T08:54:05.343Z,96589.91
2023-09-30T08:56:35.557Z,96585.06
2023-09-30T08:59:03.822Z,96592.94
2023-09-30T09:01:31.769Z,96600.72
2023-09-30T09:03:58.837Z,96598.69
2023-09-30T09:06:29.295Z,96604.31
2023-09-30T09:09:13.881Z,96595.84
2023-09-30T09:11:41.021Z,96595.34
2023-09-30T09:14:08.842Z,96590.94
2023-09-30T09:16:35.591Z,96594.44
2023-09-30T09:19:14.135Z,96600.59
2023-09-30T09:21:54.127Z,96602.13
2023-09-30T09:24:33.821Z,96581.41
2023-09-30T09:27:07.806Z,96585.53
2023-09-30T09:29:34.893Z,96592.09
2023-09-30T09:32:08.481Z,96590.84
2023-09-30T09:34:35.091Z,96592.44
2023-09-30T09:37:13.513Z,96593.47
2023-09-30T09:39:40.210Z,96597.63
2023-09-30T09:42:07.730Z,96595.06
2023-09-30T09:44:34.732Z,96598.13
2023-09-30T09:47:02.563Z,96593.75
2023-09-30T09:49:30.467Z,96584.22
2023-09-30T09:51:57.698Z,96583.53
2023-09-30T09:54:24.983Z,96591.03
2023-09-30T09:56:55.000Z,96584.75
2023-09-30T09:59:23.704Z,96582.84
2023-09-30T10:01:50.600Z,96576.53
2023-09-30T10:04:18.218Z,96581.63
2023-09-30T10:06:49.818Z,96573.03
2023-09-30T10:09:18.736Z,96583.34
2023-09-30T10:11:46.302Z,96588.63
2023-09-30T10:14:34.195Z,96568.81
2023-09-30T10:17:01.162Z,96574.69
2023-09-30T10:19:29.024Z,96568.81
2023-09-30T10:22:14.631Z,96560.84
2023-09-30T10:24:41.281Z,96553.03
2023-09-30T10:27:34.618Z,96556.13
2023-09-30T10:30:07.750Z,96563.34
2023-09-30T10:32:52.936Z,96558.84
2023-09-30T10:35:28.882Z,96561.84
2023-09-30T10:38:14.331Z,96558.56
2023-09-30T10:40:40.892Z,96567.53
2023-09-30T10:43:27.570Z,96571.53
2023-09-30T10:45:54.575Z,96557.47
2023-09-30T10:48:27.191Z,96555.78
2023-09-30T10:50:56.623Z,96548.09
2023-09-30T10:53:23.680Z,96544.59
2023-09-30T10:55:56.920Z,96553.38
2023-09-30T10:58:39.549Z,96559.69
2023-09-30T11:01:06.292Z,96557.56
2023-09-30T11:03:33.182Z,96558.97
2023-09-30T11:08:31.284Z,96556.69
2023-09-30T11:10:58.864Z,96557.88
2023-09-30T11:13:32.254Z,96552.34
2023-09-30T11:16:03.707Z,96558.44
2023-09-30T11:18:30.636Z,96549.88
2023-09-30T11:21:23.829Z,96543.59
2023-09-30T11:23:51.109Z,96525.13
2023-09-30T11:26:17.694Z,96520.81
2023-09-30T11:28:46.415Z,96526.34
2023-09-30T11:31:14.885Z,96528.75
2023-09-30T11:33:52.154Z,96532.72
2023-09-30T11:36:19.473Z,96539.00
2023-09-30T11:38:48.126Z,96538.13
2023-09-30T11:41:14.860Z,96541.22
2023-09-30T11:44:00.822Z,96545.41
2023-09-30T11:46:28.829Z,96539.13
2023-09-30T11:48:57.939Z,96538.13
2023-09-30T11:51:25.700Z,96539.13
2023-09-30T11:53:52.457Z,96542.53
2023-09-30T11:56:19.989Z,96543.69
2023-09-30T11:58:47.539Z,96540.41
2023-09-30T12:01:15.375Z,96543.81
2023-09-30T12:03:42.572Z,96540.00
2023-09-30T12:06:09.268Z,96538.53
2023-09-30T12:08:35.893Z,96542.13
2023-09-30T12:11:02.550Z,96538.03
2023-09-30T12:13:29.164Z,96535.13
2023-09-30T12:15:55.810Z,96536.84
2023-09-30T12:18:25.892Z,96539.13
2023-09-30T12:20:55.394Z,96534.34
2023-09-30T12:23:22.203Z,96522.25
2023-09-30T12:25:58.722Z,96518.53
2023-09-30T12:28:33.800Z,96512.16
2023-09-30T12:31:03.105Z,96505.94
2023-09-30T12:33:31.557Z,96498.28
2023-09-30T12:35:59.342Z,96494.69
2023-09-30T12:38:27.021Z,96490.63
2023-09-30T12:40:54.594Z,96482.34
2023-09-30T12:43:21.558Z,96479.47
2023-09-30T12:45:48.604Z,96476.69
2023-09-30T12:48:15.846Z,96477.53
2023-09-30T12:50:42.653Z,96484.25
2023-09-30T12:53:09.317Z,96482.50
2023-09-30T12:55:36.060Z,96479.28
2023-09-30T12:58:03.231Z,96481.91
2023-09-30T13:00:32.744Z,96480.50
2023-09-30T13:02:59.941Z,96479.66
2023-09-30T13:05:26.792Z,96483.97
2023-09-30T13:07:57.045Z,96485.28
2023-09-30T13:10:24.181Z,96483.75
2023-09-30T13:12:51.133Z,96484.00
2023-09-30T13:15:17.993Z,96490.13
2023-09-30T13:17:44.924Z,96495.53
2023-09-30T13:20:13.089Z,96500.44
2023-09-30T13:22:40.283Z,96495.41
2023-09-30T13:25:07.629Z,96486.66
2023-09-30T13:27:34.468Z,96479.56
2023-09-30T13:30:02.675Z,96477.88
2023-09-30T13:32:29.508Z,96471.06
2023-09-30T13:34:56.478Z,96475.19
2023-09-30T13:37:24.039Z,96465.09
2023-09-30T13:39:51.587Z,96468.97
2023-09-30T13:42:19.108Z,96466.06
2023-09-30T13:44:45.743Z,96468.19
2023-09-30T13:47:12.384Z,96473.88
2023-09-30T13:49:39.057Z,96466.38
2023-09-30T13:52:06.794Z,96469.97
2023-09-30T13:54:33.563Z,96472.38
2023-09-30T13:57:00.580Z,96471.19
2023-09-30T13:59:29.125Z,96472.25
2023-09-30T14:01:55.827Z,96464.19
2023-09-30T14:04:22.855Z,96456.63
2023-09-30T14:06:49.562Z,96448.66
2023-09-30T14:09:33.236Z,96443.63
2023-09-30T14:12:02.238Z,96444.88
2023-09-30T14:14:28.913Z,96445.13
2023-09-30T14:16:55.857Z,96445.63
2023-09-30T14:19:22.529Z,96460.59
2023-09-30T14:21:50.184Z,96459.25
2023-09-30T14:24:16.893Z,96452.97
2023-09-30T14:26:45.364Z,96458.50
2023-09-30T14:29:13.633Z,96452.75
2023-09-30T14:31:40.230Z,96446.50
2023-09-30T14:34:06.999Z,96449.44
2023-09-30T14:36:34.449Z,96454.69
2023-09-30T14:39:13.885Z,96450.16
2023-09-30T14:41:41.818Z,96447.28
2023-09-30T14:44:09.187Z,96448.00
2023-09-30T14:46:36.727Z,96445.09
2023-09-30T14:49:03.540Z,96449.63
2023-09-30T14:51:30.293Z,96453.44
2023-09-30T14:53:56.880Z,96452.88
2023-09-30T14:56:23.481Z,96456.47
2023-09-30T14:58:50.355Z,96452.31
2023-09-30T15:01:17.094Z,96450.38
2023-09-30T15:03:45.527Z,96457.84
2023-09-30T15:06:12.360Z,96464.66
2023-09-30T15:08:39.072Z,96460.25
2023-09-30T15:11:05.657Z,96462.81
2023-09-30T15:13:32.322Z,96464.03
2023-09-30T15:15:59.294Z,96462.66
2023-09-30T15:18:26.120Z,96460.63
2023-09-30T15:20:53.104Z,96456.88
2023-09-30T15:23:19.764Z,96463.25
2023-09-30T15:25:46.732Z,96462.06
2023-09-30T15:28:13.965Z,96459.56
2023-09-30T15:30:41.052Z,96450.47
2023-09-30T15:33:08.028Z,96459.50
2023-09-30T15:35:35.072Z,96454.19
2023-09-30T15:38:01.695Z,96458.03
2023-09-30T15:40:28.297Z,96459.44
2023-09-30T15:42:55.070Z,96463.34
2023-09-30T15:45:21.773Z,96466.53
2023-09-30T15:47:48.397Z,96469.53
2023-09-30T15:50:15.156Z,96468.16
2023-09-30T15:52:41.969Z,96475.03
2023-09-30T15:55:08.704Z,96478.84
2023-09-30T15:57:35.441Z,96477.13
2023-09-30T16:00:02.090Z,96476.63
2023-09-30T16:02:29.367Z,96482.25
2023-09-30T16:04:56.018Z,96475.66
2023-09-30T16:07:23.305Z,96484.13
2023-09-30T16:09:50.642Z,96481.44
2023-09-30T16:12:17.852Z,96476.06
2023-09-30T16:14:44.425Z,96463.38
2023-09-30T16:17:12.796Z,96447.19
2023-09-30T16:19:39.410Z,96455.50
2023-09-30T16:22:07.100Z,96463.88
2023-09-30T16:24:33.710Z,96465.38
2023-09-30T16:27:00.307Z,96472.13
2023-09-30T16:29:27.039Z,96473.63
2023-09-30T16:31:53.733Z,96472.81
2023-09-30T16:34:20.434Z,96477.50
2023-09-30T16:36:47.257Z,96475.41
2023-09-30T16:39:16.067Z,96485.38
2023-09-30T16:41:42.750Z,96488.22
2023-09-30T16:44:09.397Z,96495.00
2023-09-30T16:46:36.071Z,96487.81
2023-09-30T16:49:02.837Z,96487.81
2023-09-30T16:51:29.483Z,96484.91
2023-09-30T16:53:56.212Z,96488.69
2023-09-30T16:56:22.984Z,96487.44
2023-09-30T16:58:49.701Z,96485.44
2023-09-30T17:01:16.370Z,96491.25
2023-09-30T17:03:43.127Z,96491.94
2023-09-30T17:06:09.799Z,96493.28
2023-09-30T17:08:37.078Z,96492.81
2023-09-30T17:11:04.402Z,96497.75
2023-09-30T17:13:31.660Z,96504.31
2023-09-30T17:15:58.379Z,96500.09
2023-09-30T17:18:25.051Z,96494.84
2023-09-30T17:20:53.691Z,96498.94
2023-09-30T17:23:20.417Z,96494.69
2023-09-30T17:25:47.050Z,96505.75
2023-09-30T17:28:13.869Z,96506.94
2023-09-30T17:30:42.002Z,96499.94
2023-09-30T17:33:09.582Z,96495.16
2023-09-30T17:35:41.282Z,96489.78
2023-09-30T17:38:08.248Z,96488.63
2023-09-30T17:40:34.867Z,96496.38
2023-09-30T17:43:01.463Z,96490.28
2023-09-30T17:45:28.287Z,96490.84
2023-09-30T17:47:55.117Z,96496.75
2023-09-30T17:50:21.785Z,96494.66
2023-09-30T17:52:48.448Z,96496.28
2023-09-30T17:55:15.551Z,96492.31
2023-09-30T17:57:42.395Z,96491.53
2023-09-30T18:00:09.431Z,96497.72
2023-09-30T18:02:38.572Z,96492.75
2023-09-30T18:05:07.691Z,96497.97
2023-09-30T18:07:34.978Z,96501.16
2023-09-30T18:10:01.647Z,96502.50
2023-09-30T18:12:28.287Z,96508.81
2023-09-30T18:14:54.868Z,96508.94
2023-09-30T18:17:21.445Z,96508.88
2023-09-30T18:19:48.260Z,96506.38
2023-09-30T18:22:15.632Z,96514.66
2023-09-30T18:24:42.274Z,96515.84
2023-09-30T18:27:08.887Z,96517.69
2023-09-30T18:29:35.513Z,96512.19
2023-09-30T18:32:02.355Z,96512.34
2023-09-30T18:34:29.262Z,96513.94
2023-09-30T18:36:56.131Z,96515.94
2023-09-30T18:39:26.761Z,96509.22
2023-09-30T18:41:53.709Z,96513.31
2023-09-30T18:44:20.312Z,96516.22
2023-09-30T18:46:47.187Z,96508.50
2023-09-30T18:49:13.912Z,96503.41
2023-09-30T18:51:40.583Z,96513.88
2023-09-30T18:54:10.797Z,96510.13
2023-09-30T18:56:38.357Z,96516.28
2023-09-30T18:59:05.133Z,96511.69
2023-09-30T19:01:31.967Z,96522.16
2023-09-30T19:04:02.139Z,96526.50
2023-09-30T19:06:29.103Z,96532.44
2023-09-30T19:08:55.711Z,96526.53
2023-09-30T19:11:22.709Z,96526.81
2023-09-30T19:13:49.414Z,96526.38
2023-09-30T19:16:17.012Z,96533.09
2023-09-30T19:18:43.807Z,96530.38
2023-09-30T19:21:10.473Z,96529.47
2023-09-30T19:23:37.158Z,96531.41
2023-09-30T19:26:03.796Z,96528.59
2023-09-30T19:28:30.432Z,96527.66
2023-09-30T19:30:57.047Z,96532.41
2023-09-30T19:33:23.704Z,96535.16
2023-09-30T19:35:50.843Z,96539.41
2023-09-30T19:38:17.470Z,96541.88
2023-09-30T19:40:44.107Z,96536.56
2023-09-30T19:43:11.974Z,96540.84
2023-09-30T19:45:38.744Z,96544.00
2023-09-30T19:48:08.288Z,96543.16
2023-09-30T19:50:34.991Z,96535.16
2023-09-30T19:53:02.143Z,96535.47
2023-09-30T19:55:28.965Z,96538.78
2023-09-30T19:57:55.639Z,96535.56
2023-09-30T20:00:22.596Z,96536.78
2023-09-30T20:02:49.309Z,96540.06
2023-09-30T20:05:17.272Z,96547.38
2023-09-30T20:07:44.300Z,96553.31
2023-09-30T20:10:10.969Z,96547.19
2023-09-30T20:12:37.587Z,96547.72
2023-09-30T20:15:05.095Z,96542.94
2023-09-30T20:17:31.791Z,96546.94
2023-09-30T20:19:58.438Z,96541.06
2023-09-30T20:22:25.083Z,96545.34
2023-09-30T20:24:56.483Z,96545.41
2023-09-30T20:27:23.432Z,96547.63
2023-09-30T20:29:50.025Z,96546.75
2023-09-30T20:32:16.634Z,96548.09
2023-09-30T20:34:43.324Z,96543.81
2023-09-30T20:37:09.962Z,96547.59
2023-09-30T20:39:36.719Z,96542.53
2023-09-30T20:42:03.732Z,96543.84
2023-09-30T20:44:30.319Z,96549.47
2023-09-30T20:46:57.008Z,96543.06
2023-09-30T20:49:23.662Z,96534.22
2023-09-30T20:51:50.408Z,96543.84
2023-09-30T20:54:17.066Z,96542.25
2023-09-30T20:56:45.684Z,96540.44
2023-09-30T20:59:13.260Z,96538.16
2023-09-30T21:01:40.723Z,96546.09
2023-09-30T21:04:08.107Z,96542.38
2023-09-30T21:06:34.858Z,96544.28
2023-09-30T21:09:01.474Z,96547.28
2023-09-30T21:11:28.145Z,96543.34
2023-09-30T21:13:54.734Z,96539.31
2023-09-30T21:16:22.872Z,96545.28
2023-09-30T21:18:50.325Z,96546.16
2023-09-30T21:21:17.046Z,96549.09
2023-09-30T21:23:43.617Z,96553.34
2023-09-30T21:26:16.766Z,96557.13
2023-09-30T21:28:46.283Z,96559.53
2023-09-30T21:31:16.931Z,96564.91
2023-09-30T21:33:44.125Z,96564.09
2023-09-30T21:36:10.743Z,96568.13
2023-09-30T21:38:37.935Z,96571.63
2023-09-30T21:41:04.571Z,96572.97
2023-09-30T21:43:32.723Z,96566.84
2023-09-30T21:45:59.345Z,96566.31
2023-09-30T21:48:25.975Z,96568.72
2023-09-30T21:50:53.368Z,96576.22
2023-09-30T21:53:19.965Z,96573.56
2023-09-30T21:55:46.638Z,96574.09
2023-09-30T21:58:13.334Z,96577.56
2023-09-30T22:00:40.970Z,96568.75
2023-09-30T22:03:08.474Z,96571.16
2023-09-30T22:05:35.113Z,96570.88
2023-09-30T22:08:01.738Z,96577.56
2023-09-30T22:10:28.529Z,96576.50
2023-09-30T22:12:55.244Z,96575.44
2023-09-30T22:15:22.277Z,96577.84
2023-09-30T22:17:49.510Z,96579.22
2023-09-30T22:20:16.247Z,96577.34
2023-09-30T22:22:43.426Z,96566.88
2023-09-30T22:25:10.871Z,96573.84
2023-09-30T22:27:37.719Z,96574.13
2023-09-30T22:30:06.403Z,96574.13
2023-09-30T22:32:33.392Z,96578.41
2023-09-30T22:35:00.195Z,96591.22
2023-09-30T22:37:27.108Z,96589.84
2023-09-30T22:39:53.837Z,96592.00
2023-09-30T22:42:20.465Z,96597.34
2023-09-30T22:44:47.127Z,96601.88
2023-09-30T22:47:13.901Z,96602.69
2023-09-30T22:49:40.680Z,96604.81
2023-09-30T22:52:07.389Z,96608.28
2023-09-30T22:54:34.608Z,96610.69
2023-09-30T22:57:01.477Z,96603.72
2023-09-30T22:59:28.090Z,96604.25
2023-09-30T23:01:55.728Z,96606.91
2023-09-30T23:04:22.438Z,96605.25
2023-09-30T23:06:49.909Z,96604.97
2023-09-30T23:09:21.959Z,96611.88
2023-09-30T23:11:49.164Z,96604.91
2023-09-30T23:14:15.888Z,96607.84
2023-09-30T23:16:42.717Z,96596.91
2023-09-30T23:19:09.445Z,96600.41
2023-09-30T23:21:38.016Z,96596.44
2023-09-30T23:24:07.755Z,96591.88
2023-09-30T23:26:37.940Z,96584.88
2023-09-30T23:29:09.223Z,96599.00
2023-09-30T23:31:38.495Z,96592.56
2023-09-30T23:34:06.566Z,96603.22
2023-09-30T23:36:33.211Z,96601.91
2023-09-30T23:38:59.992Z,96600.00
2023-09-30T23:41:27.238Z,96604.00
2023-09-30T23:43:55.363Z,96600.25
2023-09-30T23:46:24.784Z,96601.28
2023-09-30T23:48:53.515Z,96603.63
2023-09-30T23:51:20.293Z,96601.28
2023-09-30T23:53:47.551Z,96600.53
2023-09-30T23:56:17.455Z,96610.22
2023-09-30T23:58:44.205Z,96600.09
